createdAt,value
2023-02-12T00:01:59.041Z,7.94
2023-02-12T00:04:30.428Z,7.80
2023-02-12T00:07:01.802Z,7.88
2023-02-12T00:09:33.284Z,7.87
2023-02-12T00:12:04.781Z,7.86
2023-02-12T00:14:38.820Z,7.86
2023-02-12T00:17:10.125Z,7.87
2023-02-12T00:19:41.383Z,7.82
2023-02-12T00:22:12.676Z,7.86
2023-02-12T00:24:43.937Z,7.86
2023-02-12T00:27:15.282Z,7.86
2023-02-12T00:29:46.577Z,7.87
2023-02-12T00:32:19.586Z,7.66
2023-02-12T00:34:50.974Z,7.85
2023-02-12T00:37:22.235Z,7.84
2023-02-12T00:39:53.563Z,7.82
2023-02-12T00:42:24.882Z,7.76
2023-02-12T00:44:56.141Z,7.78
2023-02-12T00:47:27.620Z,7.73
2023-02-12T00:49:58.874Z,7.71
2023-02-12T00:52:30.193Z,7.71
2023-02-12T00:55:01.476Z,7.68
2023-02-12T00:57:33.431Z,7.66
2023-02-12T01:00:05.326Z,7.56
2023-02-12T01:02:36.739Z,7.61
2023-02-12T01:05:08.875Z,7.58
2023-02-12T01:07:40.665Z,7.62
2023-02-12T01:10:11.932Z,7.61
2023-02-12T01:12:43.246Z,7.60
2023-02-12T01:15:15.182Z,7.58
2023-02-12T01:17:46.867Z,7.53
2023-02-12T01:20:21.505Z,7.50
2023-02-12T01:22:52.912Z,7.48
2023-02-12T01:25:24.156Z,7.45
2023-02-12T01:27:55.731Z,7.41
2023-02-12T01:30:27.014Z,7.40
2023-02-12T01:32:58.336Z,7.41
2023-02-12T01:35:29.630Z,7.44
2023-02-12T01:38:00.899Z,7.42
2023-02-12T01:40:32.332Z,7.46
2023-02-12T01:43:04.078Z,7.46
2023-02-12T01:45:45.294Z,7.50
2023-02-12T01:48:19.713Z,7.44
2023-02-12T01:50:52.953Z,7.47
2023-02-12T01:53:29.686Z,7.44
2023-02-12T01:56:02.253Z,7.40
2023-02-12T01:58:41.263Z,7.35
2023-02-12T02:01:21.153Z,7.34
2023-02-12T02:03:55.762Z,7.34
2023-02-12T02:06:32.692Z,7.32
2023-02-12T02:09:04.591Z,7.22
2023-02-12T02:11:54.559Z,7.20
2023-02-12T02:14:43.891Z,7.17
2023-02-12T02:17:17.914Z,7.16
2023-02-12T02:20:12.865Z,7.18
2023-02-12T02:22:55.843Z,6.99
2023-02-12T02:25:56.138Z,7.09
2023-02-12T02:28:33.449Z,7.21
2023-02-12T02:31:07.148Z,7.02
2023-02-12T02:33:59.569Z,7.30
2023-02-12T02:37:07.452Z,7.27
2023-02-12T02:39:55.200Z,7.05
2023-02-12T02:42:37.052Z,7.27
2023-02-12T02:45:13.655Z,7.28
2023-02-12T02:47:49.631Z,7.28
2023-02-12T02:50:24.644Z,7.29
2023-02-12T02:53:10.707Z,7.15
2023-02-12T02:55:56.361Z,7.30
2023-02-12T02:58:33.916Z,7.27
2023-02-12T03:01:35.763Z,7.08
2023-02-12T03:04:12.518Z,7.20
2023-02-12T03:06:51.205Z,7.25
2023-02-12T03:09:25.917Z,7.26
2023-02-12T03:12:03.328Z,7.22
2023-02-12T03:14:53.839Z,7.17
2023-02-12T03:17:31.530Z,7.22
2023-02-12T03:20:12.714Z,7.27
2023-02-12T03:23:19.506Z,7.31
2023-02-12T03:25:59.357Z,7.30
2023-02-12T03:28:34.674Z,7.35
2023-02-12T03:31:33.992Z,7.28
2023-02-12T03:34:17.475Z,7.43
2023-02-12T03:37:08.446Z,7.41
2023-02-12T03:40:08.391Z,7.35
2023-02-12T03:42:53.796Z,7.20
2023-02-12T03:46:12.305Z,7.28
2023-02-12T03:49:01.860Z,7.40
2023-02-12T03:51:37.567Z,7.42
2023-02-12T03:54:12.358Z,7.35
2023-02-12T03:57:07.093Z,7.50
2023-02-12T03:59:40.268Z,7.40
2023-02-12T04:02:12.693Z,7.44
2023-02-12T04:04:45.178Z,7.60
2023-02-12T04:07:16.887Z,7.56
2023-02-12T04:09:48.301Z,7.68
2023-02-12T04:12:40.238Z,7.72
2023-02-12T04:15:42.312Z,7.75
2023-02-12T04:18:41.898Z,7.76
2023-02-12T04:21:38.074Z,7.75
2023-02-12T04:24:22.539Z,7.76
2023-02-12T04:27:05.675Z,7.78
2023-02-12T04:29:54.888Z,7.78
2023-02-12T04:32:43.984Z,7.82
2023-02-12T04:35:33.015Z,7.83
2023-02-12T04:38:26.532Z,7.83
2023-02-12T04:40:58.841Z,7.73
2023-02-12T04:43:36.490Z,7.85
2023-02-12T04:46:09.147Z,7.84
2023-02-12T04:48:58.784Z,7.86
2023-02-12T04:51:30.056Z,7.86
2023-02-12T04:54:01.365Z,7.76
2023-02-12T04:56:32.672Z,7.70
2023-02-12T04:59:04.544Z,7.76
2023-02-12T05:01:37.909Z,7.85
2023-02-12T05:04:12.476Z,7.86
2023-02-12T05:06:45.219Z,7.87
2023-02-12T05:09:19.801Z,7.89
2023-02-12T05:11:51.080Z,7.89
2023-02-12T05:14:25.427Z,7.80
2023-02-12T05:16:56.839Z,7.90
2023-02-12T05:19:28.096Z,7.90
2023-02-12T05:21:59.463Z,7.71
2023-02-12T05:24:30.825Z,7.90
2023-02-12T05:27:02.257Z,7.88
2023-02-12T05:29:33.553Z,7.78
2023-02-12T05:32:05.263Z,7.93
2023-02-12T05:34:36.666Z,7.93
2023-02-12T05:37:07.998Z,7.95
2023-02-12T05:39:39.344Z,7.95
2023-02-12T05:42:10.621Z,7.91
2023-02-12T05:44:41.896Z,7.97
2023-02-12T05:47:13.306Z,7.99
2023-02-12T05:49:44.662Z,7.98
2023-02-12T05:52:15.923Z,7.96
2023-02-12T05:54:49.837Z,7.95
2023-02-12T05:57:21.108Z,7.85
2023-02-12T05:59:52.466Z,7.87
2023-02-12T06:02:23.803Z,7.97
2023-02-12T06:04:55.131Z,7.95
2023-02-12T06:07:26.487Z,7.92
2023-02-12T06:09:57.827Z,7.95
2023-02-12T06:12:29.111Z,7.95
2023-02-12T06:15:00.556Z,7.94
2023-02-12T06:17:33.927Z,7.95
2023-02-12T06:20:05.662Z,7.97
2023-02-12T06:22:38.216Z,7.97
2023-02-12T06:25:09.498Z,7.98
2023-02-12T06:27:40.870Z,7.98
2023-02-12T06:30:12.778Z,7.97
2023-02-12T06:32:44.135Z,7.99
2023-02-12T06:35:15.443Z,7.98
2023-02-12T06:37:46.712Z,7.85
2023-02-12T06:40:18.242Z,7.98
2023-02-12T06:42:50.408Z,7.96
2023-02-12T06:45:22.020Z,7.88
2023-02-12T06:47:53.289Z,7.98
2023-02-12T06:50:25.193Z,7.98
2023-02-12T06:52:58.711Z,7.97
2023-02-12T06:55:30.002Z,7.96
2023-02-12T06:58:01.305Z,7.79
2023-02-12T07:00:32.688Z,7.96
2023-02-12T07:03:04.055Z,7.95
2023-02-12T07:05:37.798Z,7.96
2023-02-12T07:08:09.224Z,7.94
2023-02-12T07:10:40.631Z,8.02
2023-02-12T07:13:11.896Z,7.94
2023-02-12T07:15:43.216Z,8.09
2023-02-12T07:18:14.677Z,7.96
2023-02-12T07:20:45.967Z,8.04
2023-02-12T07:23:17.239Z,8.10
2023-02-12T07:26:15.522Z,8.15
2023-02-12T07:28:46.794Z,8.08
2023-02-12T07:31:23.318Z,8.02
2023-02-12T07:33:56.648Z,8.16
2023-02-12T07:36:30.578Z,8.20
2023-02-12T07:39:02.044Z,7.91
2023-02-12T07:41:35.811Z,8.12
2023-02-12T07:44:10.533Z,8.19
2023-02-12T07:46:48.463Z,8.27
2023-02-12T07:49:21.839Z,8.17
2023-02-12T07:51:55.461Z,8.17
2023-02-12T07:54:26.949Z,8.20
2023-02-12T07:56:58.423Z,8.16
2023-02-12T07:59:29.853Z,8.30
2023-02-12T08:02:01.204Z,8.31
2023-02-12T08:04:32.655Z,8.27
2023-02-12T08:07:03.981Z,8.29
2023-02-12T08:09:35.369Z,8.15
2023-02-12T08:12:07.055Z,8.30
2023-02-12T08:14:38.321Z,8.30
2023-02-12T08:17:09.743Z,8.34
2023-02-12T08:19:41.092Z,8.34
2023-02-12T08:22:12.908Z,8.19
2023-02-12T08:24:44.352Z,8.22
2023-02-12T08:27:15.689Z,8.28
2023-02-12T08:29:47.008Z,8.28
2023-02-12T08:32:18.520Z,8.31
2023-02-12T08:34:49.904Z,8.24
2023-02-12T08:37:21.227Z,8.39
2023-02-12T08:39:52.549Z,8.29
2023-02-12T08:42:25.627Z,8.50
2023-02-12T08:44:56.984Z,8.46
2023-02-12T08:47:31.078Z,8.53
2023-02-12T08:50:02.738Z,8.52
2023-02-12T08:52:35.255Z,8.53
2023-02-12T08:55:06.979Z,8.59
2023-02-12T08:57:38.273Z,8.66
2023-02-12T09:00:10.399Z,8.61
2023-02-12T09:02:41.810Z,8.70
2023-02-12T09:05:13.266Z,8.54
2023-02-12T09:07:44.617Z,8.68
2023-02-12T09:10:16.030Z,8.66
2023-02-12T09:12:48.315Z,8.48
2023-02-12T09:15:19.614Z,8.63
2023-02-12T09:17:51.010Z,8.69
2023-02-12T09:20:22.291Z,8.73
2023-02-12T09:22:54.475Z,8.70
2023-02-12T09:25:26.256Z,8.88
2023-02-12T09:27:57.691Z,8.85
2023-02-12T09:30:29.328Z,8.83
2023-02-12T09:33:00.617Z,8.92
2023-02-12T09:35:35.949Z,9.02
2023-02-12T09:38:08.257Z,9.02
2023-02-12T09:41:10.504Z,9.10
2023-02-12T09:43:47.869Z,8.67
2023-02-12T09:46:33.148Z,9.05
2023-02-12T09:49:11.231Z,8.67
2023-02-12T09:51:45.383Z,8.32
2023-02-12T09:54:20.133Z,9.12
2023-02-12T09:56:55.263Z,8.93
2023-02-12T09:59:35.150Z,8.66
2023-02-12T10:02:17.654Z,9.16
2023-02-12T10:05:00.726Z,8.94
2023-02-12T10:07:49.061Z,9.14
2023-02-12T10:10:45.196Z,9.13
2023-02-12T10:13:38.162Z,9.17
2023-02-12T10:16:27.532Z,9.13
2023-02-12T10:19:10.781Z,9.21
2023-02-12T10:21:45.013Z,9.17
2023-02-12T10:24:34.900Z,9.16
2023-02-12T10:27:15.937Z,8.90
2023-02-12T10:29:48.738Z,9.21
2023-02-12T10:32:22.973Z,9.28
2023-02-12T10:34:56.957Z,9.20
2023-02-12T10:37:32.549Z,9.39
2023-02-12T10:40:18.326Z,9.44
2023-02-12T10:42:52.405Z,9.45
2023-02-12T10:45:32.775Z,9.51
2023-02-12T10:48:09.568Z,9.47
2023-02-12T10:50:40.966Z,9.40
2023-02-12T10:53:20.089Z,9.18
2023-02-12T10:56:25.103Z,8.97
2023-02-12T10:59:01.418Z,9.32
2023-02-12T11:01:38.831Z,9.39
2023-02-12T11:04:33.258Z,9.43
2023-02-12T11:07:06.973Z,9.40
2023-02-12T11:09:46.924Z,9.37
2023-02-12T11:12:47.902Z,9.43
2023-02-12T11:15:24.378Z,9.44
2023-02-12T11:18:05.674Z,9.46
2023-02-12T11:20:48.428Z,9.51
2023-02-12T11:23:40.368Z,9.56
2023-02-12T11:26:17.817Z,9.51
2023-02-12T11:28:59.559Z,9.43
2023-02-12T11:31:35.440Z,9.42
2023-02-12T11:34:16.526Z,9.46
2023-02-12T11:36:51.504Z,9.56
2023-02-12T11:39:33.357Z,9.56
2023-02-12T11:42:15.221Z,9.52
2023-02-12T11:44:56.762Z,9.62
2023-02-12T11:47:34.008Z,9.60
2023-02-12T11:50:15.740Z,9.60
2023-02-12T11:52:50.589Z,9.58
2023-02-12T11:55:33.670Z,9.64
2023-02-12T11:58:16.257Z,9.76
2023-02-12T12:01:00.480Z,9.82
2023-02-12T12:03:38.815Z,9.80
2023-02-12T12:06:29.595Z,9.94
2023-02-12T12:09:26.784Z,9.93
2023-02-12T12:12:17.454Z,9.93
2023-02-12T12:15:33.887Z,10.05
2023-02-12T12:18:39.884Z,10.13
2023-02-12T12:21:46.846Z,10.23
2023-02-12T12:24:26.772Z,10.09
2023-02-12T12:27:24.501Z,9.98
2023-02-12T12:30:06.650Z,9.95
2023-02-12T12:32:42.098Z,10.03
2023-02-12T12:35:17.892Z,10.03
2023-02-12T12:38:05.717Z,10.25
2023-02-12T12:41:14.268Z,10.34
2023-02-12T12:43:54.936Z,10.37
2023-02-12T12:46:45.023Z,10.41
2023-02-12T12:49:54.151Z,10.42
2023-02-12T12:52:53.032Z,10.27
2023-02-12T12:55:54.576Z,10.09
2023-02-12T12:58:38.306Z,10.17
2023-02-12T13:01:25.168Z,10.24
2023-02-12T13:04:32.413Z,10.24
2023-02-12T13:07:34.335Z,10.21
2023-02-12T13:10:13.900Z,10.26
2023-02-12T13:13:03.453Z,10.29
2023-02-12T13:15:47.021Z,10.36
2023-02-12T13:18:41.201Z,10.39
2023-02-12T13:21:37.470Z,10.38
2023-02-12T13:24:21.566Z,10.24
2023-02-12T13:27:01.169Z,10.22
2023-02-12T13:29:37.021Z,10.14
2023-02-12T13:32:28.680Z,10.04
2023-02-12T13:35:02.224Z,9.96
2023-02-12T13:37:44.711Z,10.03
2023-02-12T13:40:22.880Z,10.06
2023-02-12T13:43:26.424Z,10.05
2023-02-12T13:46:14.523Z,10.10
2023-02-12T13:49:30.276Z,10.10
2023-02-12T13:52:19.734Z,10.13
2023-02-12T13:55:00.123Z,10.15
2023-02-12T13:57:31.421Z,9.88
2023-02-12T14:00:08.238Z,9.89
2023-02-12T14:02:40.082Z,9.78
2023-02-12T14:05:20.962Z,9.64
2023-02-12T14:07:56.359Z,9.62
2023-02-12T14:10:41.587Z,9.42
2023-02-12T14:13:22.488Z,9.46
2023-02-12T14:15:56.500Z,9.47
2023-02-12T14:18:32.230Z,9.46
2023-02-12T14:21:09.924Z,9.40
2023-02-12T14:23:46.259Z,9.38
2023-02-12T14:26:22.952Z,9.35
2023-02-12T14:29:01.647Z,9.41
2023-02-12T14:31:37.948Z,9.36
2023-02-12T14:34:09.284Z,9.31
2023-02-12T14:36:46.196Z,9.23
2023-02-12T14:39:20.783Z,9.22
2023-02-12T14:42:10.453Z,9.21
2023-02-12T14:44:46.029Z,9.18
2023-02-12T14:47:29.249Z,9.22
2023-02-12T14:50:19.092Z,9.25
2023-02-12T14:53:00.005Z,9.23
2023-02-12T14:55:36.401Z,9.21
2023-02-12T14:58:18.174Z,9.17
2023-02-12T15:00:56.161Z,9.18
2023-02-12T15:03:27.520Z,9.22
2023-02-12T15:06:14.855Z,9.16
2023-02-12T15:08:56.048Z,9.23
2023-02-12T15:11:52.876Z,9.26
2023-02-12T15:14:28.018Z,9.35
2023-02-12T15:17:11.900Z,9.23
2023-02-12T15:19:52.884Z,9.39
2023-02-12T15:22:39.502Z,9.32
2023-02-12T15:25:25.809Z,9.38
2023-02-12T15:28:18.960Z,9.28
2023-02-12T15:30:52.909Z,9.14
2023-02-12T15:33:35.816Z,9.19
2023-02-12T15:36:10.573Z,9.11
2023-02-12T15:38:42.064Z,9.13
2023-02-12T15:41:38.223Z,9.16
2023-02-12T15:44:24.291Z,9.18
2023-02-12T15:47:00.692Z,9.21
2023-02-12T15:49:36.970Z,9.23
2023-02-12T15:52:11.318Z,9.22
2023-02-12T15:54:44.988Z,9.09
2023-02-12T15:57:22.688Z,9.20
2023-02-12T15:59:56.895Z,9.21
2023-02-12T16:02:30.907Z,9.22
2023-02-12T16:05:04.370Z,9.18
2023-02-12T16:07:37.107Z,9.16
2023-02-12T16:10:14.214Z,9.10
2023-02-12T16:12:47.000Z,9.07
2023-02-12T16:15:45.808Z,9.01
2023-02-12T16:18:25.470Z,8.92
2023-02-12T16:21:12.597Z,9.00
2023-02-12T16:23:45.491Z,8.96
2023-02-12T16:26:22.771Z,8.89
2023-02-12T16:28:56.754Z,8.87
2023-02-12T16:31:28.228Z,8.81
2023-02-12T16:34:00.909Z,8.82
2023-02-12T16:36:32.453Z,8.69
2023-02-12T16:39:06.398Z,8.76
2023-02-12T16:41:55.208Z,8.72
2023-02-12T16:44:29.393Z,8.61
2023-02-12T16:47:01.466Z,8.67
2023-02-12T16:49:32.778Z,8.67
2023-02-12T16:52:40.565Z,8.66
2023-02-12T16:55:13.705Z,8.60
2023-02-12T16:57:45.028Z,8.53
2023-02-12T17:00:17.309Z,8.50
2023-02-12T17:02:48.650Z,8.51
2023-02-12T17:05:19.933Z,8.49
2023-02-12T17:07:51.668Z,8.47
2023-02-12T17:10:22.945Z,8.44
2023-02-12T17:12:54.235Z,8.39
2023-02-12T17:15:33.406Z,8.31
2023-02-12T17:18:04.717Z,8.40
2023-02-12T17:20:36.749Z,8.38
2023-02-12T17:23:09.913Z,8.24
2023-02-12T17:25:41.265Z,8.34
2023-02-12T17:28:12.690Z,8.32
2023-02-12T17:30:44.535Z,8.32
2023-02-12T17:33:18.544Z,8.09
2023-02-12T17:35:49.964Z,8.30
2023-02-12T17:38:21.301Z,8.29
2023-02-12T17:40:53.307Z,8.21
2023-02-12T17:43:24.915Z,8.31
2023-02-12T17:45:56.308Z,8.32
2023-02-12T17:48:27.675Z,8.33
2023-02-12T17:50:59.334Z,8.35
2023-02-12T17:53:30.696Z,8.27
2023-02-12T17:56:02.043Z,8.36
2023-02-12T17:58:33.432Z,8.35
2023-02-12T18:01:06.651Z,8.39
2023-02-12T18:03:38.902Z,8.34
2023-02-12T18:06:13.930Z,8.27
2023-02-12T18:08:45.523Z,8.39
2023-02-12T18:11:18.984Z,8.41
2023-02-12T18:13:55.734Z,8.43
2023-02-12T18:16:30.477Z,8.43
2023-02-12T18:19:06.786Z,8.43
2023-02-12T18:21:38.690Z,8.43
2023-02-12T18:24:10.661Z,8.27
2023-02-12T18:26:45.094Z,8.38
2023-02-12T18:29:16.406Z,8.26
2023-02-12T18:31:47.877Z,8.03
2023-02-12T18:34:19.955Z,8.10
2023-02-12T18:36:51.448Z,8.18
2023-02-12T18:39:22.809Z,8.37
2023-02-12T18:41:54.069Z,8.29
2023-02-12T18:44:25.446Z,8.35
2023-02-12T18:46:59.218Z,8.27
2023-02-12T18:49:30.616Z,8.23
2023-02-12T18:52:02.087Z,8.23
2023-02-12T18:54:33.909Z,8.39
2023-02-12T18:57:05.226Z,8.38
2023-02-12T18:59:36.740Z,8.33
2023-02-12T19:02:08.163Z,8.34
2023-02-12T19:04:39.677Z,8.35
2023-02-12T19:07:11.101Z,8.35
2023-02-12T19:09:42.368Z,8.37
2023-02-12T19:12:13.693Z,8.32
2023-02-12T19:14:45.055Z,8.36
2023-02-12T19:17:16.328Z,8.24
2023-02-12T19:19:52.002Z,8.26
2023-02-12T19:22:23.256Z,8.38
2023-02-12T19:24:54.528Z,8.37
2023-02-12T19:27:25.939Z,8.39
2023-02-12T19:29:57.552Z,8.34
2023-02-12T19:32:28.932Z,8.39
2023-02-12T19:35:02.872Z,8.37
2023-02-12T19:37:34.272Z,8.32
2023-02-12T19:40:06.189Z,8.34
2023-02-12T19:42:37.736Z,8.34
2023-02-12T19:45:09.494Z,8.33
2023-02-12T19:47:40.772Z,8.33
2023-02-12T19:50:12.216Z,8.33
2023-02-12T19:52:43.495Z,8.34
2023-02-12T19:55:14.780Z,8.29
2023-02-12T19:57:47.894Z,8.16
2023-02-12T20:00:19.463Z,8.32
2023-02-12T20:02:50.847Z,8.20
2023-02-12T20:05:22.306Z,8.32
2023-02-12T20:07:53.737Z,8.32
2023-02-12T20:10:25.449Z,8.31
2023-02-12T20:12:57.062Z,8.20
2023-02-12T20:15:28.442Z,8.32
2023-02-12T20:17:59.779Z,8.19
2023-02-12T20:20:32.498Z,8.30
2023-02-12T20:23:03.827Z,8.32
2023-02-12T20:25:35.096Z,8.29
2023-02-12T20:28:06.385Z,8.25
2023-02-12T20:30:42.899Z,8.28
2023-02-12T20:33:14.362Z,8.28
2023-02-12T20:35:45.850Z,8.17
2023-02-12T20:38:17.289Z,8.27
2023-02-12T20:40:48.620Z,8.26
2023-02-12T20:43:19.925Z,8.27
2023-02-12T20:45:51.240Z,8.25
2023-02-12T20:48:22.722Z,8.13
2023-02-12T20:50:54.163Z,8.15
2023-02-12T20:53:25.821Z,8.02
2023-02-12T20:56:01.161Z,8.26
2023-02-12T20:58:32.504Z,8.26
2023-02-12T21:01:09.527Z,8.24
2023-02-12T21:03:41.326Z,8.25
2023-02-12T21:06:12.954Z,8.25
2023-02-12T21:08:44.611Z,8.26
2023-02-12T21:11:19.593Z,8.27
2023-02-12T21:13:59.213Z,8.27
2023-02-12T21:16:37.007Z,8.27
2023-02-12T21:19:09.227Z,8.26
2023-02-12T21:21:42.162Z,8.27
2023-02-12T21:24:21.452Z,8.26
2023-02-12T21:26:55.222Z,8.24
2023-02-12T21:29:27.501Z,8.24
2023-02-12T21:32:00.146Z,8.25
2023-02-12T21:34:31.512Z,8.25
2023-02-12T21:37:02.997Z,8.08
2023-02-12T21:39:34.468Z,8.26
2023-02-12T21:42:05.829Z,8.25
2023-02-12T21:44:37.291Z,8.19
2023-02-12T21:47:08.793Z,8.18
2023-02-12T21:49:40.258Z,8.25
2023-02-12T21:52:11.632Z,8.26
2023-02-12T21:54:43.091Z,8.11
2023-02-12T21:57:18.896Z,8.26
2023-02-12T21:59:50.176Z,8.17
2023-02-12T22:02:22.525Z,8.23
2023-02-12T22:04:54.528Z,8.14
2023-02-12T22:07:25.842Z,8.10
2023-02-12T22:09:57.195Z,8.05
2023-02-12T22:12:32.195Z,8.08
2023-02-12T22:15:03.740Z,8.21
2023-02-12T22:17:35.136Z,8.10
2023-02-12T22:20:07.592Z,8.12
2023-02-12T22:22:38.861Z,8.21
2023-02-12T22:25:10.122Z,8.18
2023-02-12T22:27:41.427Z,8.12
2023-02-12T22:30:12.970Z,8.14
2023-02-12T22:32:44.561Z,8.15
2023-02-12T22:35:16.001Z,8.17
2023-02-12T22:37:47.476Z,8.19
2023-02-12T22:40:18.964Z,8.16
2023-02-12T22:42:50.275Z,8.06
2023-02-12T22:45:21.523Z,8.04
2023-02-12T22:47:52.793Z,8.13
2023-02-12T22:50:24.052Z,8.18
2023-02-12T22:52:55.323Z,8.13
2023-02-12T22:55:27.573Z,8.17
2023-02-12T22:57:59.458Z,8.17
2023-02-12T23:00:31.291Z,8.16
2023-02-12T23:03:02.595Z,8.17
2023-02-12T23:05:37.958Z,8.06
2023-02-12T23:08:09.315Z,8.16
2023-02-12T23:10:40.577Z,8.11
2023-02-12T23:13:21.236Z,8.14
2023-02-12T23:15:59.544Z,8.14
2023-02-12T23:18:32.023Z,8.15
2023-02-12T23:21:04.111Z,8.12
2023-02-12T23:23:35.459Z,8.06
2023-02-12T23:26:06.899Z,8.01
2023-02-12T23:28:38.258Z,8.09
2023-02-12T23:31:09.704Z,8.14
2023-02-12T23:33:41.161Z,8.11
2023-02-12T23:36:12.613Z,8.10
2023-02-12T23:38:44.028Z,8.10
2023-02-12T23:41:15.294Z,8.01
2023-02-12T23:43:46.583Z,8.06
2023-02-12T23:46:17.932Z,7.98
2023-02-12T23:48:49.209Z,8.04
2023-02-12T23:51:20.504Z,8.04
2023-02-12T23:53:51.899Z,8.00
2023-02-12T23:56:23.371Z,8.06
2023-02-12T23:58:57.613Z,8.04
